createdAt,value
2019-04-01T00:00:50.352Z,14.02
2019-04-01T00:03:21.592Z,14.07
2019-04-01T00:05:52.921Z,14.05
2019-04-01T00:08:24.140Z,13.98
2019-04-01T00:10:55.536Z,14.02
2019-04-01T00:13:26.854Z,14.00
2019-04-01T00:15:58.054Z,13.89
2019-04-01T00:18:29.251Z,13.78
2019-04-01T00:21:00.432Z,13.88
2019-04-01T00:23:32.938Z,13.97
2019-04-01T00:26:04.246Z,14.10
2019-04-01T00:28:35.554Z,14.00
2019-04-01T00:31:06.738Z,13.65
2019-04-01T00:33:38.034Z,13.58
2019-04-01T00:36:09.498Z,13.65
2019-04-01T00:38:40.700Z,13.71
2019-04-01T00:41:11.910Z,13.67
2019-04-01T00:43:53.170Z,13.65
2019-04-01T00:46:25.534Z,13.70
2019-04-01T00:48:56.780Z,13.80
2019-04-01T00:51:28.033Z,13.86
2019-04-01T00:53:59.267Z,13.85
2019-04-01T00:56:30.847Z,13.87
2019-04-01T00:59:02.037Z,13.88
2019-04-01T01:01:33.233Z,13.89
2019-04-01T01:04:04.611Z,13.89
2019-04-01T01:06:35.798Z,13.89
2019-04-01T01:09:07.318Z,13.90
2019-04-01T01:11:38.561Z,14.00
2019-04-01T01:14:09.801Z,13.99
2019-04-01T01:16:41.062Z,14.00
2019-04-01T01:19:12.306Z,13.94
2019-04-01T01:21:44.862Z,13.92
2019-04-01T01:24:16.187Z,14.03
2019-04-01T01:26:47.452Z,13.91
2019-04-01T01:29:18.665Z,13.69
2019-04-01T01:31:49.894Z,13.64
2019-04-01T01:34:21.117Z,13.63
2019-04-01T01:36:52.360Z,13.84
2019-04-01T01:39:23.596Z,13.78
2019-04-01T01:41:54.794Z,13.87
2019-04-01T01:44:26.026Z,13.89
2019-04-01T01:46:57.241Z,13.96
2019-04-01T01:49:28.540Z,14.01
2019-04-01T01:52:00.729Z,14.05
2019-04-01T01:54:31.966Z,14.17
2019-04-01T01:57:03.175Z,14.10
2019-04-01T01:59:34.848Z,13.99
2019-04-01T02:02:06.728Z,13.85
2019-04-01T02:04:38.050Z,13.76
2019-04-01T02:07:09.313Z,13.62
2019-04-01T02:09:40.519Z,13.70
2019-04-01T02:12:11.727Z,13.66
2019-04-01T02:14:42.910Z,13.54
2019-04-01T02:17:14.238Z,13.42
2019-04-01T02:19:45.429Z,13.37
2019-04-01T02:22:16.622Z,13.39
2019-04-01T02:24:48.284Z,13.25
2019-04-01T02:27:19.494Z,13.23
2019-04-01T02:29:50.720Z,13.17
2019-04-01T02:32:21.960Z,13.12
2019-04-01T02:34:53.155Z,13.25
2019-04-01T02:37:24.428Z,13.29
2019-04-01T02:39:55.601Z,13.20
2019-04-01T02:42:26.847Z,13.07
2019-04-01T02:44:59.018Z,12.99
2019-04-01T02:47:30.775Z,12.86
2019-04-01T02:50:02.013Z,12.86
2019-04-01T02:52:33.185Z,12.89
2019-04-01T02:55:06.941Z,12.80
2019-04-01T02:57:37.336Z,12.80
2019-04-01T03:00:08.530Z,12.81
2019-04-01T03:02:39.788Z,12.78
2019-04-01T03:05:10.972Z,12.79
2019-04-01T03:07:42.187Z,12.82
2019-04-01T03:10:13.508Z,12.86
2019-04-01T03:12:44.749Z,12.84
2019-04-01T03:15:15.941Z,12.86
2019-04-01T03:17:47.192Z,12.92
2019-04-01T03:20:18.389Z,13.00
2019-04-01T03:22:49.602Z,12.70
2019-04-01T03:25:20.800Z,12.70
2019-04-01T03:27:52.585Z,12.51
2019-04-01T03:30:24.404Z,12.24
2019-04-01T03:32:58.348Z,12.39
2019-04-01T03:35:29.545Z,12.46
2019-04-01T03:38:00.801Z,12.23
2019-04-01T03:40:32.397Z,12.10
2019-04-01T03:43:03.681Z,11.92
2019-04-01T03:45:34.918Z,11.97
2019-04-01T03:48:06.122Z,11.73
2019-04-01T03:50:37.343Z,11.65
2019-04-01T03:53:08.520Z,11.69
2019-04-01T03:55:39.855Z,11.62
2019-04-01T03:58:11.078Z,11.61
2019-04-01T04:00:42.307Z,11.53
2019-04-01T04:03:13.614Z,11.65
2019-04-01T04:05:45.189Z,11.65
2019-04-01T04:08:16.451Z,11.66
2019-04-01T04:10:47.680Z,11.66
2019-04-01T04:13:20.098Z,11.76
2019-04-01T04:15:51.321Z,11.88
2019-04-01T04:18:22.580Z,11.72
2019-04-01T04:20:53.832Z,11.70
2019-04-01T04:23:26.200Z,11.72
2019-04-01T04:25:58.998Z,11.66
2019-04-01T04:28:30.225Z,11.78
2019-04-01T04:31:01.670Z,11.81
2019-04-01T04:33:33.155Z,11.65
2019-04-01T04:36:04.346Z,11.69
2019-04-01T04:38:35.581Z,11.65
2019-04-01T04:41:06.826Z,11.71
2019-04-01T04:43:38.062Z,11.71
2019-04-01T04:46:09.299Z,11.64
2019-04-01T04:48:40.512Z,11.51
2019-04-01T04:51:11.866Z,11.53
2019-04-01T04:53:43.057Z,11.66
2019-04-01T04:56:14.249Z,11.69
2019-04-01T04:58:45.444Z,11.41
2019-04-01T05:01:16.723Z,11.43
2019-04-01T05:03:47.998Z,11.53
2019-04-01T05:06:19.214Z,11.58
2019-04-01T05:08:50.473Z,11.65
2019-04-01T05:11:21.817Z,11.69
2019-04-01T05:13:54.231Z,11.68
2019-04-01T05:16:25.421Z,11.66
2019-04-01T05:18:56.633Z,11.71
2019-04-01T05:21:27.924Z,11.73
2019-04-01T05:23:59.104Z,11.72
2019-04-01T05:26:30.305Z,11.64
2019-04-01T05:29:01.498Z,11.28
2019-04-01T05:31:32.861Z,11.46
2019-04-01T05:34:04.065Z,11.30
2019-04-01T05:36:35.241Z,10.95
2019-04-01T05:39:07.738Z,10.92
2019-04-01T05:41:38.925Z,10.98
2019-04-01T05:44:10.163Z,10.82
2019-04-01T05:46:41.371Z,10.94
2019-04-01T05:49:12.641Z,10.98
2019-04-01T05:51:43.839Z,10.97
2019-04-01T05:54:15.023Z,11.10
2019-04-01T05:56:46.618Z,10.83
2019-04-01T05:59:17.852Z,10.68
2019-04-01T06:01:49.666Z,10.65
2019-04-01T06:04:20.892Z,10.47
2019-04-01T06:06:52.866Z,10.40
2019-04-01T06:09:24.171Z,10.33
2019-04-01T06:11:55.701Z,10.31
2019-04-01T06:14:26.923Z,10.34
2019-04-01T06:16:58.153Z,10.39
2019-04-01T06:19:30.433Z,10.38
2019-04-01T06:22:01.680Z,10.23
2019-04-01T06:24:33.170Z,10.21
2019-04-01T06:27:04.374Z,10.21
2019-04-01T06:29:35.623Z,10.30
2019-04-01T06:32:06.827Z,10.35
2019-04-01T06:34:52.304Z,10.36
2019-04-01T06:37:12.465Z,10.40
2019-04-01T06:39:43.764Z,10.24
2019-04-01T06:42:14.959Z,10.23
2019-04-01T06:44:46.176Z,10.29
2019-04-01T06:47:17.373Z,10.32
2019-04-01T06:49:48.558Z,10.47
2019-04-01T06:52:20.459Z,10.47
2019-04-01T06:54:53.014Z,10.55
2019-04-01T06:57:24.206Z,10.62
2019-04-01T06:59:55.490Z,10.72
2019-04-01T07:02:27.282Z,10.88
2019-04-01T07:04:58.474Z,10.86
2019-04-01T07:07:29.677Z,10.94
2019-04-01T07:10:00.911Z,11.00
2019-04-01T07:12:32.102Z,11.13
2019-04-01T07:15:03.338Z,11.21
2019-04-01T07:17:35.713Z,11.17
2019-04-01T07:20:08.888Z,11.16
2019-04-01T07:22:39.815Z,11.34
2019-04-01T07:25:11.002Z,11.42
2019-04-01T07:27:42.208Z,11.55
2019-04-01T07:30:13.470Z,11.70
2019-04-01T07:32:44.686Z,11.67
2019-04-01T07:35:16.105Z,11.85
2019-04-01T07:37:47.298Z,12.05
2019-04-01T07:40:19.991Z,12.21
2019-04-01T07:42:51.214Z,12.93
2019-04-01T07:45:22.867Z,14.12
2019-04-01T07:47:54.091Z,14.92
2019-04-01T07:50:25.335Z,15.76
2019-04-01T07:52:56.645Z,16.34
2019-04-01T07:55:29.251Z,16.46
2019-04-01T07:58:01.068Z,17.39
2019-04-01T08:00:32.395Z,17.21
2019-04-01T08:03:03.671Z,18.04
2019-04-01T08:05:34.822Z,17.46
2019-04-01T08:08:06.379Z,17.69
2019-04-01T08:10:37.655Z,18.59
2019-04-01T08:13:08.893Z,18.70
2019-04-01T08:15:40.173Z,18.89
2019-04-01T08:18:11.404Z,19.43
2019-04-01T08:20:42.651Z,19.94
2019-04-01T08:23:13.902Z,20.49
2019-04-01T08:25:47.896Z,20.70
2019-04-01T08:28:18.429Z,21.40
2019-04-01T08:30:49.697Z,20.98
2019-04-01T08:33:20.916Z,20.81
2019-04-01T08:35:53.455Z,20.32
2019-04-01T08:38:24.656Z,19.84
2019-04-01T08:40:56.303Z,19.62
2019-04-01T08:43:27.559Z,19.50
2019-04-01T08:45:58.817Z,19.37
2019-04-01T08:48:30.005Z,19.54
2019-04-01T08:51:01.264Z,19.77
2019-04-01T08:53:32.509Z,19.98
2019-04-01T08:56:03.772Z,20.97
2019-04-01T08:58:35.009Z,22.22
2019-04-01T09:01:06.258Z,22.25
2019-04-01T09:03:37.449Z,22.99
2019-04-01T09:06:08.858Z,23.12
2019-04-01T09:08:40.242Z,22.43
2019-04-01T09:11:11.478Z,22.71
2019-04-01T09:13:43.681Z,23.55
2019-04-01T09:16:15.903Z,23.82
2019-04-01T09:18:47.151Z,23.59
2019-04-01T09:21:18.333Z,23.91
2019-04-01T09:23:52.122Z,23.05
2019-04-01T09:26:22.439Z,23.41
2019-04-01T09:28:53.674Z,23.92
2019-04-01T09:31:24.871Z,23.65
2019-04-01T09:33:56.106Z,24.19
2019-04-01T09:36:27.369Z,22.87
2019-04-01T09:38:58.598Z,21.58
2019-04-01T09:41:29.915Z,22.44
2019-04-01T09:44:01.153Z,23.03
2019-04-01T09:46:32.439Z,23.93
2019-04-01T09:49:03.691Z,23.63
2019-04-01T09:51:47.909Z,23.60
2019-04-01T09:54:07.820Z,24.29
2019-04-01T09:56:39.018Z,23.65
2019-04-01T09:59:10.261Z,24.00
2019-04-01T10:01:41.437Z,24.46
2019-04-01T10:04:12.761Z,23.68
2019-04-01T10:06:43.938Z,24.00
2019-04-01T10:09:15.635Z,23.12
2019-04-01T10:11:46.970Z,23.70
2019-04-01T10:14:18.149Z,23.56
2019-04-01T10:16:49.447Z,23.08
2019-04-01T10:19:20.813Z,23.08
2019-04-01T10:21:53.567Z,23.12
2019-04-01T10:24:24.791Z,22.99
2019-04-01T10:26:55.963Z,23.85
2019-04-01T10:29:27.252Z,23.80
2019-04-01T10:31:58.537Z,24.01
2019-04-01T10:34:29.833Z,24.42
2019-04-01T10:37:01.071Z,25.23
2019-04-01T10:39:33.660Z,25.23
2019-04-01T10:42:04.928Z,24.52
2019-04-01T10:44:36.170Z,25.52
2019-04-01T10:47:07.517Z,26.26
2019-04-01T10:49:38.879Z,26.16
2019-04-01T10:52:10.287Z,27.20
2019-04-01T10:54:41.551Z,27.01
2019-04-01T10:57:14.561Z,27.26
2019-04-01T10:59:46.628Z,27.75
2019-04-01T11:02:18.589Z,28.52
2019-04-01T11:04:49.879Z,27.55
2019-04-01T11:07:21.121Z,27.85
2019-04-01T11:09:52.442Z,28.10
2019-04-01T11:12:24.854Z,27.83
2019-04-01T11:14:56.350Z,26.93
2019-04-01T11:17:27.521Z,25.17
2019-04-01T11:19:58.709Z,25.28
2019-04-01T11:22:31.732Z,25.66
2019-04-01T11:25:03.303Z,25.82
2019-04-01T11:27:34.520Z,27.21
2019-04-01T11:30:07.793Z,24.42
2019-04-01T11:32:40.323Z,24.87
2019-04-01T11:35:12.014Z,25.20
2019-04-01T11:37:43.276Z,25.71
2019-04-01T11:40:14.466Z,25.50
2019-04-01T11:42:45.694Z,24.73
2019-04-01T11:45:17.119Z,25.01
2019-04-01T11:47:48.270Z,25.38
2019-04-01T11:50:19.565Z,25.47
2019-04-01T11:52:51.792Z,25.92
2019-04-01T11:55:23.035Z,26.84
2019-04-01T11:57:54.376Z,27.03
2019-04-01T12:00:26.380Z,27.40
2019-04-01T12:02:57.685Z,27.36
2019-04-01T12:05:28.901Z,27.47
2019-04-01T12:08:00.111Z,26.16
2019-04-01T12:10:31.322Z,26.16
2019-04-01T12:13:02.551Z,27.37
2019-04-01T12:15:34.397Z,26.76
2019-04-01T12:18:05.760Z,26.36
2019-04-01T12:20:38.177Z,25.55
2019-04-01T12:23:09.554Z,25.42
2019-04-01T12:25:41.104Z,24.96
2019-04-01T12:28:12.603Z,25.60
2019-04-01T12:30:44.877Z,25.36
2019-04-01T12:33:16.185Z,25.30
2019-04-01T12:35:47.379Z,24.39
2019-04-01T12:38:18.795Z,24.11
2019-04-01T12:40:50.016Z,23.61
2019-04-01T12:43:23.498Z,22.61
2019-04-01T12:45:54.478Z,21.87
2019-04-01T12:48:25.853Z,22.18
2019-04-01T12:50:57.149Z,22.37
2019-04-01T12:53:28.491Z,23.09
2019-04-01T12:55:59.701Z,23.76
2019-04-01T12:58:30.902Z,23.80
2019-04-01T13:01:02.136Z,23.36
2019-04-01T13:03:33.328Z,23.12
2019-04-01T13:06:04.563Z,22.92
2019-04-01T13:08:35.828Z,22.61
2019-04-01T13:11:07.422Z,22.43
2019-04-01T13:13:39.922Z,22.92
2019-04-01T13:16:11.187Z,22.82
2019-04-01T13:18:42.374Z,23.03
2019-04-01T13:21:13.606Z,23.31
2019-04-01T13:23:44.955Z,23.03
2019-04-01T13:26:16.177Z,22.93
2019-04-01T13:28:47.430Z,23.42
2019-04-01T13:31:18.645Z,23.54
2019-04-01T13:33:49.874Z,22.59
2019-04-01T13:36:21.548Z,21.91
2019-04-01T13:38:52.779Z,22.33
2019-04-01T13:41:25.250Z,22.84
2019-04-01T13:43:56.617Z,23.07
2019-04-01T13:46:28.297Z,23.07
2019-04-01T13:49:04.151Z,23.21
2019-04-01T13:51:32.722Z,23.34
2019-04-01T13:54:08.929Z,23.25
2019-04-01T13:56:37.556Z,23.37
2019-04-01T13:59:09.848Z,23.38
2019-04-01T14:01:41.728Z,23.35
2019-04-01T14:04:13.052Z,22.83
2019-04-01T14:06:44.857Z,22.90
2019-04-01T14:09:16.054Z,22.16
2019-04-01T14:11:48.319Z,22.19
2019-04-01T14:14:19.813Z,21.54
2019-04-01T14:16:51.266Z,21.21
2019-04-01T14:19:23.173Z,21.36
2019-04-01T14:21:54.635Z,21.18
2019-04-01T14:24:26.125Z,20.86
2019-04-01T14:26:57.562Z,20.22
2019-04-01T14:29:29.043Z,20.10
2019-04-01T14:32:01.023Z,19.78
2019-04-01T14:34:33.331Z,19.71
2019-04-01T14:37:04.994Z,19.84
2019-04-01T14:39:36.934Z,19.49
2019-04-01T14:42:08.735Z,19.47
2019-04-01T14:44:40.322Z,19.32
2019-04-01T14:47:11.532Z,19.13
2019-04-01T14:49:42.742Z,19.39
2019-04-01T14:52:14.017Z,19.00
2019-04-01T14:54:45.215Z,18.83
2019-04-01T14:57:16.409Z,18.89
2019-04-01T14:59:47.633Z,18.91
2019-04-01T15:02:18.901Z,18.70
2019-04-01T15:04:50.359Z,18.41
2019-04-01T15:07:21.571Z,18.63
2019-04-01T15:09:52.759Z,18.54
2019-04-01T15:12:24.256Z,18.46
2019-04-01T15:14:55.786Z,18.53
2019-04-01T15:17:27.012Z,18.35
2019-04-01T15:19:59.241Z,18.28
2019-04-01T15:22:30.833Z,18.10
2019-04-01T15:25:02.157Z,17.94
2019-04-01T15:27:34.929Z,17.94
2019-04-01T15:30:07.001Z,17.82
2019-04-01T15:32:38.313Z,17.91
2019-04-01T15:35:09.562Z,17.94
2019-04-01T15:37:40.806Z,17.85
2019-04-01T15:40:12.203Z,17.71
2019-04-01T15:42:43.525Z,17.79
2019-04-01T15:45:14.785Z,17.74
2019-04-01T15:47:45.982Z,17.74
2019-04-01T15:50:28.263Z,17.82
2019-04-01T15:52:50.227Z,17.78
2019-04-01T15:55:21.455Z,17.79
2019-04-01T15:57:52.665Z,17.79
2019-04-01T16:00:23.892Z,17.63
2019-04-01T16:02:55.068Z,17.28
2019-04-01T16:05:26.360Z,15.52
2019-04-01T16:07:57.560Z,14.90
2019-04-01T16:10:29.465Z,14.60
2019-04-01T16:13:01.587Z,13.92
2019-04-01T16:15:33.521Z,13.88
2019-04-01T16:18:05.066Z,13.80
2019-04-01T16:20:37.131Z,13.89
2019-04-01T16:23:08.760Z,13.77
2019-04-01T16:25:40.419Z,13.68
2019-04-01T16:28:11.788Z,13.55
2019-04-01T16:30:43.572Z,13.27
2019-04-01T16:33:14.755Z,13.10
2019-04-01T16:35:45.940Z,13.19
2019-04-01T16:38:17.120Z,13.28
2019-04-01T16:40:48.529Z,13.22
2019-04-01T16:43:19.723Z,13.05
2019-04-01T16:45:51.091Z,12.86
2019-04-01T16:48:22.387Z,12.81
2019-04-01T16:50:53.714Z,13.15
2019-04-01T16:53:25.194Z,13.02
2019-04-01T16:55:57.376Z,13.09
2019-04-01T16:58:28.808Z,13.09
2019-04-01T17:01:02.470Z,13.01
2019-04-01T17:03:32.931Z,12.98
2019-04-01T17:06:04.120Z,12.97
2019-04-01T17:08:35.354Z,12.96
2019-04-01T17:11:06.630Z,13.09
2019-04-01T17:13:37.833Z,13.14
2019-04-01T17:16:09.057Z,13.33
2019-04-01T17:18:40.258Z,13.24
2019-04-01T17:21:12.772Z,12.80
2019-04-01T17:23:43.955Z,12.60
2019-04-01T17:26:15.288Z,12.69
2019-04-01T17:28:46.485Z,12.74
2019-04-01T17:31:17.699Z,12.76
2019-04-01T17:33:48.965Z,12.77
2019-04-01T17:36:20.173Z,12.89
2019-04-01T17:38:51.407Z,13.20
2019-04-01T17:41:22.700Z,13.02
2019-04-01T17:43:53.912Z,12.91
2019-04-01T17:46:26.552Z,13.00
2019-04-01T17:48:58.576Z,13.09
2019-04-01T17:51:29.866Z,13.22
2019-04-01T17:54:03.383Z,13.16
2019-04-01T17:56:34.634Z,13.20
2019-04-01T17:59:05.829Z,13.09
2019-04-01T18:01:37.030Z,13.14
2019-04-01T18:04:08.898Z,13.15
2019-04-01T18:06:40.105Z,13.31
2019-04-01T18:09:11.329Z,13.31
2019-04-01T18:11:42.630Z,13.20
2019-04-01T18:14:13.829Z,13.13
2019-04-01T18:16:46.137Z,12.90
2019-04-01T18:19:17.708Z,12.80
2019-04-01T18:21:48.972Z,12.96
2019-04-01T18:24:20.200Z,13.08
2019-04-01T18:26:51.395Z,13.08
2019-04-01T18:29:22.605Z,13.22
2019-04-01T18:31:53.802Z,13.16
2019-04-01T18:34:25.003Z,13.25
2019-04-01T18:36:56.268Z,13.29
2019-04-01T18:39:29.959Z,13.40
2019-04-01T18:42:00.380Z,13.35
2019-04-01T18:44:31.914Z,13.45
2019-04-01T18:47:04.193Z,13.36
2019-04-01T18:49:35.524Z,13.35
2019-04-01T18:52:06.730Z,13.35
2019-04-01T18:54:37.968Z,13.18
2019-04-01T18:57:09.192Z,13.04
2019-04-01T18:59:40.411Z,13.00
2019-04-01T19:02:13.086Z,12.91
2019-04-01T19:04:44.791Z,12.76
2019-04-01T19:07:16.104Z,12.75
2019-04-01T19:09:47.309Z,12.72
2019-04-01T19:12:18.599Z,12.81
2019-04-01T19:14:49.806Z,12.96
2019-04-01T19:17:21.015Z,13.02
2019-04-01T19:19:52.229Z,12.91
2019-04-01T19:22:23.507Z,12.89
2019-04-01T19:24:54.734Z,12.97
2019-04-01T19:27:26.314Z,13.01
2019-04-01T19:29:57.537Z,13.08
2019-04-01T19:32:28.788Z,13.19
2019-04-01T19:35:00.042Z,13.21
2019-04-01T19:37:33.777Z,13.16
2019-04-01T19:40:04.685Z,13.20
2019-04-01T19:42:39.309Z,13.16
2019-04-01T19:45:11.961Z,13.11
2019-04-01T19:47:43.307Z,12.98
2019-04-01T19:50:18.215Z,13.00
2019-04-01T19:52:47.988Z,12.78
2019-04-01T19:55:19.237Z,12.65
2019-04-01T19:57:50.544Z,12.48
2019-04-01T20:00:28.076Z,12.49
2019-04-01T20:02:55.315Z,12.45
2019-04-01T20:05:27.837Z,12.53
2019-04-01T20:07:59.141Z,12.54
2019-04-01T20:10:30.412Z,12.53
2019-04-01T20:13:02.116Z,12.57
2019-04-01T20:15:33.385Z,12.50
2019-04-01T20:18:04.644Z,12.68
2019-04-01T20:20:35.923Z,12.78
2019-04-01T20:23:07.182Z,12.81
2019-04-01T20:25:38.462Z,12.84
2019-04-01T20:28:09.831Z,12.93
2019-04-01T20:30:42.691Z,13.00
2019-04-01T20:33:17.936Z,13.11
2019-04-01T20:35:47.139Z,13.14
2019-04-01T20:38:18.582Z,13.09
2019-04-01T20:40:49.850Z,13.09
2019-04-01T20:43:21.137Z,13.10
2019-04-01T20:45:52.625Z,13.16
2019-04-01T20:48:24.000Z,13.25
2019-04-01T20:50:56.253Z,13.17
2019-04-01T20:53:28.242Z,13.28
2019-04-01T20:55:59.529Z,13.33
2019-04-01T20:58:30.855Z,13.40
2019-04-01T21:01:02.094Z,13.47
2019-04-01T21:03:34.238Z,13.67
2019-04-01T21:06:05.694Z,13.22
2019-04-01T21:08:38.108Z,13.23
2019-04-01T21:11:11.016Z,13.15
2019-04-01T21:13:42.516Z,13.06
2019-04-01T21:16:14.052Z,13.03
2019-04-01T21:18:45.326Z,12.92
2019-04-01T21:21:17.319Z,12.89
2019-04-01T21:23:48.627Z,12.92
2019-04-01T21:26:19.867Z,12.87
2019-04-01T21:28:51.134Z,12.78
2019-04-01T21:31:22.654Z,12.65
2019-04-01T21:33:53.879Z,12.51
2019-04-01T21:36:25.196Z,12.26
2019-04-01T21:38:56.972Z,12.24
2019-04-01T21:41:28.284Z,12.35
2019-04-01T21:43:59.542Z,12.26
2019-04-01T21:46:32.900Z,12.19
2019-04-01T21:49:08.065Z,12.28
2019-04-01T21:51:39.332Z,12.35
2019-04-01T21:54:10.969Z,12.37
2019-04-01T21:56:42.789Z,12.43
2019-04-01T21:59:14.118Z,12.46
2019-04-01T22:01:46.282Z,12.53
2019-04-01T22:04:21.233Z,12.45
2019-04-01T22:06:52.498Z,12.40
2019-04-01T22:09:23.981Z,12.53
2019-04-01T22:11:55.282Z,12.46
2019-04-01T22:14:26.558Z,12.43
2019-04-01T22:16:57.797Z,12.53
2019-04-01T22:19:35.643Z,12.74
2019-04-01T22:22:17.202Z,12.89
2019-04-01T22:24:49.613Z,12.77
2019-04-01T22:27:20.881Z,12.48
2019-04-01T22:29:52.129Z,12.61
2019-04-01T22:32:23.321Z,12.75
2019-04-01T22:34:54.660Z,12.72
2019-04-01T22:37:27.471Z,12.76
2019-04-01T22:39:58.801Z,12.76
2019-04-01T22:42:30.070Z,12.77
2019-04-01T22:45:01.342Z,12.91
2019-04-01T22:47:32.574Z,12.90
2019-04-01T22:50:03.805Z,12.91
2019-04-01T22:55:07.725Z,12.44
2019-04-01T22:57:38.976Z,12.32
2019-04-01T23:00:10.177Z,12.39
2019-04-01T23:02:43.084Z,12.48
2019-04-01T23:05:15.471Z,12.37
2019-04-01T23:07:46.702Z,12.26
2019-04-01T23:10:17.906Z,12.08
2019-04-01T23:12:50.939Z,12.09
2019-04-01T23:15:22.127Z,12.15
2019-04-01T23:17:53.401Z,12.24
2019-04-01T23:20:24.809Z,12.22
2019-04-01T23:22:57.784Z,12.21
2019-04-01T23:25:28.960Z,12.18
2019-04-01T23:28:00.194Z,12.16
2019-04-01T23:30:33.195Z,12.20
2019-04-01T23:33:05.628Z,12.11
2019-04-01T23:35:36.849Z,12.04
2019-04-01T23:38:08.049Z,11.96
2019-04-01T23:40:39.669Z,11.92
2019-04-01T23:43:10.933Z,11.87
2019-04-01T23:45:42.123Z,11.90
2019-04-01T23:48:14.068Z,11.84
2019-04-01T23:50:45.380Z,11.87
2019-04-01T23:53:16.962Z,12.02
2019-04-01T23:55:48.611Z,12.07
2019-04-01T23:58:19.854Z,12.26
